sensor_id;sensor_type;location;lat;lon;timestamp;P1;durP1;ratioP1;P2;durP2;ratioP2
64684;SDS011;51109;47.414;18.954;2023-05-27T00:02:01;10.85;;;8.60;;
64684;SDS011;51109;47.414;18.954;2023-05-27T00:04:27;10.13;;;8.68;;
64684;SDS011;51109;47.414;18.954;2023-05-27T00:06:53;11.93;;;9.00;;
64684;SDS011;51109;47.414;18.954;2023-05-27T00:09:19;9.60;;;8.52;;
64684;SDS011;51109;47.414;18.954;2023-05-27T00:11:45;10.88;;;8.20;;
64684;SDS011;51109;47.414;18.954;2023-05-27T00:14:11;12.85;;;9.60;;
64684;SDS011;51109;47.414;18.954;2023-05-27T00:16:37;11.93;;;8.77;;
64684;SDS011;51109;47.414;18.954;2023-05-27T00:19:03;10.95;;;8.68;;
64684;SDS011;51109;47.414;18.954;2023-05-27T00:21:29;11.82;;;9.15;;
64684;SDS011;51109;47.414;18.954;2023-05-27T00:23:55;9.60;;;8.60;;
64684;SDS011;51109;47.414;18.954;2023-05-27T00:26:23;11.90;;;8.95;;
64684;SDS011;51109;47.414;18.954;2023-05-27T00:28:49;11.00;;;9.02;;
64684;SDS011;51109;47.414;18.954;2023-05-27T00:31:15;11.20;;;9.10;;
64684;SDS011;51109;47.414;18.954;2023-05-27T00:33:41;10.82;;;9.20;;
64684;SDS011;51109;47.414;18.954;2023-05-27T00:36:09;11.98;;;9.45;;
64684;SDS011;51109;47.414;18.954;2023-05-27T00:38:35;12.18;;;9.40;;
64684;SDS011;51109;47.414;18.954;2023-05-27T00:41:02;14.82;;;9.10;;
64684;SDS011;51109;47.414;18.954;2023-05-27T00:43:29;11.90;;;9.43;;
64684;SDS011;51109;47.414;18.954;2023-05-27T00:45:58;12.90;;;9.32;;
64684;SDS011;51109;47.414;18.954;2023-05-27T00:48:24;16.35;;;9.55;;
64684;SDS011;51109;47.414;18.954;2023-05-27T00:50:50;13.38;;;9.55;;
64684;SDS011;51109;47.414;18.954;2023-05-27T00:53:16;13.82;;;9.43;;
64684;SDS011;51109;47.414;18.954;2023-05-27T00:55:42;11.57;;;10.10;;
64684;SDS011;51109;47.414;18.954;2023-05-27T00:58:09;11.23;;;9.55;;
64684;SDS011;51109;47.414;18.954;2023-05-27T01:00:35;14.02;;;10.05;;
64684;SDS011;51109;47.414;18.954;2023-05-27T01:03:04;12.85;;;9.88;;
64684;SDS011;51109;47.414;18.954;2023-05-27T01:05:34;13.05;;;10.05;;
64684;SDS011;51109;47.414;18.954;2023-05-27T01:08:05;15.45;;;9.60;;
64684;SDS011;51109;47.414;18.954;2023-05-27T01:11:06;11.57;;;9.77;;
64684;SDS011;51109;47.414;18.954;2023-05-27T01:16:09;16.67;;;9.90;;
64684;SDS011;51109;47.414;18.954;2023-05-27T01:18:37;11.73;;;9.38;;
64684;SDS011;51109;47.414;18.954;2023-05-27T01:21:09;11.80;;;9.57;;
64684;SDS011;51109;47.414;18.954;2023-05-27T01:23:38;15.23;;;10.10;;
64684;SDS011;51109;47.414;18.954;2023-05-27T01:26:06;16.10;;;10.65;;
64684;SDS011;51109;47.414;18.954;2023-05-27T01:28:32;12.57;;;10.52;;
64684;SDS011;51109;47.414;18.954;2023-05-27T01:31:02;13.07;;;9.80;;
64684;SDS011;51109;47.414;18.954;2023-05-27T01:34:05;11.65;;;9.68;;
64684;SDS011;51109;47.414;18.954;2023-05-27T01:36:35;14.65;;;10.00;;
64684;SDS011;51109;47.414;18.954;2023-05-27T01:39:13;12.63;;;9.48;;
64684;SDS011;51109;47.414;18.954;2023-05-27T01:41:42;13.07;;;9.77;;
64684;SDS011;51109;47.414;18.954;2023-05-27T01:44:08;10.82;;;9.73;;
64684;SDS011;51109;47.414;18.954;2023-05-27T01:46:35;12.65;;;9.80;;
64684;SDS011;51109;47.414;18.954;2023-05-27T01:49:02;14.00;;;10.75;;
64684;SDS011;51109;47.414;18.954;2023-05-27T01:51:28;11.60;;;9.60;;
64684;SDS011;51109;47.414;18.954;2023-05-27T01:53:54;11.43;;;10.15;;
64684;SDS011;51109;47.414;18.954;2023-05-27T01:56:20;15.45;;;10.52;;
64684;SDS011;51109;47.414;18.954;2023-05-27T01:58:47;14.70;;;9.85;;
64684;SDS011;51109;47.414;18.954;2023-05-27T02:01:13;13.48;;;9.75;;
64684;SDS011;51109;47.414;18.954;2023-05-27T02:03:39;12.00;;;9.85;;
64684;SDS011;51109;47.414;18.954;2023-05-27T02:06:05;15.80;;;10.65;;
64684;SDS011;51109;47.414;18.954;2023-05-27T02:08:31;15.75;;;10.90;;
64684;SDS011;51109;47.414;18.954;2023-05-27T02:10:59;13.18;;;10.43;;
64684;SDS011;51109;47.414;18.954;2023-05-27T02:13:24;16.98;;;11.40;;
64684;SDS011;51109;47.414;18.954;2023-05-27T02:15:51;13.95;;;10.63;;
64684;SDS011;51109;47.414;18.954;2023-05-27T02:18:16;16.05;;;10.73;;
64684;SDS011;51109;47.414;18.954;2023-05-27T02:20:42;12.98;;;10.73;;
64684;SDS011;51109;47.414;18.954;2023-05-27T02:23:08;11.95;;;10.30;;
64684;SDS011;51109;47.414;18.954;2023-05-27T02:25:34;15.93;;;11.18;;
64684;SDS011;51109;47.414;18.954;2023-05-27T02:28:00;13.52;;;10.40;;
64684;SDS011;51109;47.414;18.954;2023-05-27T02:30:28;14.85;;;11.18;;
64684;SDS011;51109;47.414;18.954;2023-05-27T02:32:56;14.40;;;11.20;;
64684;SDS011;51109;47.414;18.954;2023-05-27T02:35:22;13.77;;;10.93;;
64684;SDS011;51109;47.414;18.954;2023-05-27T02:37:48;15.40;;;11.27;;
64684;SDS011;51109;47.414;18.954;2023-05-27T02:40:26;12.15;;;10.15;;
64684;SDS011;51109;47.414;18.954;2023-05-27T02:42:53;12.60;;;10.48;;
64684;SDS011;51109;47.414;18.954;2023-05-27T02:45:20;11.85;;;9.93;;
64684;SDS011;51109;47.414;18.954;2023-05-27T02:47:46;13.13;;;10.45;;
64684;SDS011;51109;47.414;18.954;2023-05-27T02:50:13;11.98;;;10.43;;
64684;SDS011;51109;47.414;18.954;2023-05-27T02:52:39;15.60;;;10.77;;
64684;SDS011;51109;47.414;18.954;2023-05-27T02:55:05;13.30;;;11.02;;
64684;SDS011;51109;47.414;18.954;2023-05-27T02:57:32;16.67;;;11.80;;
64684;SDS011;51109;47.414;18.954;2023-05-27T02:59:58;13.98;;;10.70;;
64684;SDS011;51109;47.414;18.954;2023-05-27T03:02:24;11.48;;;10.07;;
64684;SDS011;51109;47.414;18.954;2023-05-27T03:04:50;17.60;;;10.55;;
64684;SDS011;51109;47.414;18.954;2023-05-27T03:07:16;13.55;;;10.45;;
64684;SDS011;51109;47.414;18.954;2023-05-27T03:09:42;15.57;;;10.45;;
64684;SDS011;51109;47.414;18.954;2023-05-27T03:12:07;14.07;;;10.50;;
64684;SDS011;51109;47.414;18.954;2023-05-27T03:14:33;12.35;;;10.25;;
64684;SDS011;51109;47.414;18.954;2023-05-27T03:16:59;12.70;;;10.75;;
64684;SDS011;51109;47.414;18.954;2023-05-27T03:19:25;18.48;;;11.05;;
64684;SDS011;51109;47.414;18.954;2023-05-27T03:21:51;16.27;;;10.00;;
64684;SDS011;51109;47.414;18.954;2023-05-27T03:24:17;18.75;;;11.10;;
64684;SDS011;51109;47.414;18.954;2023-05-27T03:26:43;12.95;;;10.75;;
64684;SDS011;51109;47.414;18.954;2023-05-27T03:29:09;13.55;;;9.85;;
64684;SDS011;51109;47.414;18.954;2023-05-27T03:31:35;16.30;;;10.90;;
64684;SDS011;51109;47.414;18.954;2023-05-27T03:34:00;12.88;;;9.88;;
64684;SDS011;51109;47.414;18.954;2023-05-27T03:36:26;13.05;;;11.05;;
64684;SDS011;51109;47.414;18.954;2023-05-27T03:38:52;14.70;;;10.55;;
64684;SDS011;51109;47.414;18.954;2023-05-27T03:41:18;15.35;;;10.55;;
64684;SDS011;51109;47.414;18.954;2023-05-27T03:43:44;12.38;;;10.20;;
64684;SDS011;51109;47.414;18.954;2023-05-27T03:46:10;16.38;;;10.05;;
64684;SDS011;51109;47.414;18.954;2023-05-27T03:48:36;16.63;;;9.95;;
64684;SDS011;51109;47.414;18.954;2023-05-27T03:51:01;12.60;;;10.50;;
64684;SDS011;51109;47.414;18.954;2023-05-27T03:53:27;14.20;;;9.80;;
64684;SDS011;51109;47.414;18.954;2023-05-27T03:55:53;13.32;;;9.45;;
64684;SDS011;51109;47.414;18.954;2023-05-27T03:58:19;15.73;;;9.68;;
64684;SDS011;51109;47.414;18.954;2023-05-27T04:00:45;11.60;;;9.38;;
64684;SDS011;51109;47.414;18.954;2023-05-27T04:03:13;13.77;;;9.30;;
64684;SDS011;51109;47.414;18.954;2023-05-27T04:05:39;14.75;;;9.93;;
64684;SDS011;51109;47.414;18.954;2023-05-27T04:08:05;15.23;;;9.73;;
64684;SDS011;51109;47.414;18.954;2023-05-27T04:10:31;13.73;;;9.57;;
64684;SDS011;51109;47.414;18.954;2023-05-27T04:12:56;10.43;;;9.10;;
64684;SDS011;51109;47.414;18.954;2023-05-27T04:15:22;11.32;;;9.30;;
64684;SDS011;51109;47.414;18.954;2023-05-27T04:17:48;8.93;;;7.93;;
64684;SDS011;51109;47.414;18.954;2023-05-27T04:20:14;12.50;;;8.70;;
64684;SDS011;51109;47.414;18.954;2023-05-27T04:22:40;12.23;;;8.38;;
64684;SDS011;51109;47.414;18.954;2023-05-27T04:25:07;12.43;;;8.73;;
64684;SDS011;51109;47.414;18.954;2023-05-27T04:27:33;13.25;;;8.68;;
64684;SDS011;51109;47.414;18.954;2023-05-27T04:29:59;12.35;;;8.48;;
64684;SDS011;51109;47.414;18.954;2023-05-27T04:32:25;16.33;;;8.15;;
64684;SDS011;51109;47.414;18.954;2023-05-27T04:34:52;11.85;;;8.57;;
64684;SDS011;51109;47.414;18.954;2023-05-27T04:37:18;13.30;;;8.23;;
64684;SDS011;51109;47.414;18.954;2023-05-27T04:39:48;14.02;;;8.70;;
64684;SDS011;51109;47.414;18.954;2023-05-27T04:42:13;12.32;;;8.38;;
64684;SDS011;51109;47.414;18.954;2023-05-27T04:44:40;12.50;;;8.25;;
64684;SDS011;51109;47.414;18.954;2023-05-27T04:47:06;12.85;;;8.65;;
64684;SDS011;51109;47.414;18.954;2023-05-27T04:49:32;13.43;;;8.57;;
64684;SDS011;51109;47.414;18.954;2023-05-27T04:52:00;12.05;;;8.45;;
64684;SDS011;51109;47.414;18.954;2023-05-27T04:54:25;11.63;;;8.15;;
64684;SDS011;51109;47.414;18.954;2023-05-27T04:56:52;17.55;;;9.60;;
64684;SDS011;51109;47.414;18.954;2023-05-27T04:59:18;9.02;;;8.05;;
64684;SDS011;51109;47.414;18.954;2023-05-27T05:01:46;16.85;;;7.75;;
64684;SDS011;51109;47.414;18.954;2023-05-27T05:04:35;13.05;;;7.90;;
64684;SDS011;51109;47.414;18.954;2023-05-27T05:07:02;10.73;;;7.18;;
64684;SDS011;51109;47.414;18.954;2023-05-27T05:09:29;12.90;;;8.27;;
64684;SDS011;51109;47.414;18.954;2023-05-27T05:11:55;9.93;;;7.72;;
64684;SDS011;51109;47.414;18.954;2023-05-27T05:14:21;12.45;;;7.53;;
64684;SDS011;51109;47.414;18.954;2023-05-27T05:16:46;13.43;;;8.13;;
64684;SDS011;51109;47.414;18.954;2023-05-27T05:19:12;13.15;;;7.85;;
64684;SDS011;51109;47.414;18.954;2023-05-27T05:21:38;14.43;;;8.40;;
64684;SDS011;51109;47.414;18.954;2023-05-27T05:24:04;10.43;;;7.78;;
64684;SDS011;51109;47.414;18.954;2023-05-27T05:26:30;10.93;;;7.90;;
64684;SDS011;51109;47.414;18.954;2023-05-27T05:28:56;11.35;;;7.88;;
64684;SDS011;51109;47.414;18.954;2023-05-27T05:31:22;9.52;;;6.82;;
64684;SDS011;51109;47.414;18.954;2023-05-27T05:33:48;13.05;;;7.35;;
64684;SDS011;51109;47.414;18.954;2023-05-27T05:36:14;12.90;;;7.70;;
64684;SDS011;51109;47.414;18.954;2023-05-27T05:38:40;10.52;;;7.55;;
64684;SDS011;51109;47.414;18.954;2023-05-27T05:41:06;10.05;;;7.38;;
64684;SDS011;51109;47.414;18.954;2023-05-27T05:43:32;11.15;;;7.72;;
64684;SDS011;51109;47.414;18.954;2023-05-27T05:45:58;12.35;;;6.97;;
64684;SDS011;51109;47.414;18.954;2023-05-27T05:48:25;13.50;;;6.72;;
64684;SDS011;51109;47.414;18.954;2023-05-27T05:50:50;10.43;;;6.55;;
64684;SDS011;51109;47.414;18.954;2023-05-27T05:53:16;11.13;;;7.05;;
64684;SDS011;51109;47.414;18.954;2023-05-27T05:55:42;14.02;;;7.25;;
64684;SDS011;51109;47.414;18.954;2023-05-27T05:58:08;8.90;;;6.60;;
64684;SDS011;51109;47.414;18.954;2023-05-27T06:00:34;8.80;;;6.78;;
64684;SDS011;51109;47.414;18.954;2023-05-27T06:03:00;10.98;;;6.35;;
64684;SDS011;51109;47.414;18.954;2023-05-27T06:05:27;10.45;;;6.45;;
64684;SDS011;51109;47.414;18.954;2023-05-27T06:07:53;10.90;;;7.35;;
64684;SDS011;51109;47.414;18.954;2023-05-27T06:10:19;17.45;;;7.00;;
64684;SDS011;51109;47.414;18.954;2023-05-27T06:12:45;11.82;;;7.15;;
64684;SDS011;51109;47.414;18.954;2023-05-27T06:15:11;12.98;;;6.55;;
64684;SDS011;51109;47.414;18.954;2023-05-27T06:17:37;9.18;;;5.93;;
64684;SDS011;51109;47.414;18.954;2023-05-27T06:20:03;9.88;;;6.60;;
64684;SDS011;51109;47.414;18.954;2023-05-27T06:22:29;9.32;;;6.65;;
64684;SDS011;51109;47.414;18.954;2023-05-27T06:24:55;14.75;;;7.15;;
64684;SDS011;51109;47.414;18.954;2023-05-27T06:27:21;11.77;;;7.03;;
64684;SDS011;51109;47.414;18.954;2023-05-27T06:29:47;7.68;;;5.68;;
64684;SDS011;51109;47.414;18.954;2023-05-27T06:32:13;16.98;;;7.40;;
64684;SDS011;51109;47.414;18.954;2023-05-27T06:34:39;9.73;;;6.38;;
64684;SDS011;51109;47.414;18.954;2023-05-27T06:37:04;13.07;;;6.78;;
64684;SDS011;51109;47.414;18.954;2023-05-27T06:39:30;14.32;;;6.47;;
64684;SDS011;51109;47.414;18.954;2023-05-27T06:41:56;11.60;;;6.28;;
64684;SDS011;51109;47.414;18.954;2023-05-27T06:44:22;14.85;;;6.85;;
64684;SDS011;51109;47.414;18.954;2023-05-27T06:46:48;12.63;;;6.63;;
64684;SDS011;51109;47.414;18.954;2023-05-27T06:49:13;12.30;;;6.15;;
64684;SDS011;51109;47.414;18.954;2023-05-27T06:51:39;10.52;;;6.38;;
64684;SDS011;51109;47.414;18.954;2023-05-27T06:54:05;10.65;;;6.15;;
64684;SDS011;51109;47.414;18.954;2023-05-27T06:56:31;12.85;;;6.45;;
64684;SDS011;51109;47.414;18.954;2023-05-27T06:58:57;13.80;;;7.13;;
64684;SDS011;51109;47.414;18.954;2023-05-27T07:01:23;8.90;;;5.40;;
64684;SDS011;51109;47.414;18.954;2023-05-27T07:03:49;11.63;;;6.03;;
64684;SDS011;51109;47.414;18.954;2023-05-27T07:06:15;10.25;;;6.00;;
64684;SDS011;51109;47.414;18.954;2023-05-27T07:08:41;13.43;;;5.20;;
64684;SDS011;51109;47.414;18.954;2023-05-27T07:11:07;8.20;;;5.32;;
64684;SDS011;51109;47.414;18.954;2023-05-27T07:13:33;11.85;;;5.85;;
64684;SDS011;51109;47.414;18.954;2023-05-27T07:15:59;8.48;;;5.43;;
64684;SDS011;51109;47.414;18.954;2023-05-27T07:18:25;14.32;;;5.88;;
64684;SDS011;51109;47.414;18.954;2023-05-27T07:20:51;9.30;;;5.72;;
64684;SDS011;51109;47.414;18.954;2023-05-27T07:23:17;10.88;;;6.70;;
64684;SDS011;51109;47.414;18.954;2023-05-27T07:25:42;10.15;;;6.05;;
64684;SDS011;51109;47.414;18.954;2023-05-27T07:28:08;12.20;;;6.47;;
64684;SDS011;51109;47.414;18.954;2023-05-27T07:30:34;10.98;;;5.65;;
64684;SDS011;51109;47.414;18.954;2023-05-27T07:33:00;16.30;;;5.93;;
64684;SDS011;51109;47.414;18.954;2023-05-27T07:35:26;11.35;;;5.70;;
64684;SDS011;51109;47.414;18.954;2023-05-27T07:37:52;14.93;;;6.13;;
64684;SDS011;51109;47.414;18.954;2023-05-27T07:40:18;14.10;;;5.85;;
64684;SDS011;51109;47.414;18.954;2023-05-27T07:42:44;7.93;;;5.50;;
64684;SDS011;51109;47.414;18.954;2023-05-27T07:45:10;8.32;;;5.63;;
64684;SDS011;51109;47.414;18.954;2023-05-27T07:47:36;12.38;;;5.70;;
64684;SDS011;51109;47.414;18.954;2023-05-27T07:50:02;13.00;;;5.90;;
64684;SDS011;51109;47.414;18.954;2023-05-27T07:52:28;8.23;;;5.63;;
64684;SDS011;51109;47.414;18.954;2023-05-27T07:54:54;14.23;;;6.22;;
64684;SDS011;51109;47.414;18.954;2023-05-27T07:57:21;10.50;;;5.22;;
64684;SDS011;51109;47.414;18.954;2023-05-27T07:59:47;13.40;;;5.82;;
64684;SDS011;51109;47.414;18.954;2023-05-27T08:02:13;14.32;;;5.97;;
64684;SDS011;51109;47.414;18.954;2023-05-27T08:04:39;10.48;;;6.10;;
64684;SDS011;51109;47.414;18.954;2023-05-27T08:07:05;19.00;;;9.13;;
64684;SDS011;51109;47.414;18.954;2023-05-27T08:09:31;10.85;;;6.13;;
64684;SDS011;51109;47.414;18.954;2023-05-27T08:11:57;14.13;;;6.10;;
64684;SDS011;51109;47.414;18.954;2023-05-27T08:14:23;13.45;;;6.70;;
64684;SDS011;51109;47.414;18.954;2023-05-27T08:16:50;9.50;;;5.43;;
64684;SDS011;51109;47.414;18.954;2023-05-27T08:19:16;8.38;;;5.28;;
64684;SDS011;51109;47.414;18.954;2023-05-27T08:21:42;12.30;;;5.72;;
64684;SDS011;51109;47.414;18.954;2023-05-27T08:24:08;14.18;;;5.60;;
64684;SDS011;51109;47.414;18.954;2023-05-27T08:26:33;14.45;;;5.47;;
64684;SDS011;51109;47.414;18.954;2023-05-27T08:28:59;10.95;;;5.95;;
64684;SDS011;51109;47.414;18.954;2023-05-27T08:31:26;10.77;;;5.22;;
64684;SDS011;51109;47.414;18.954;2023-05-27T08:33:52;12.50;;;5.55;;
64684;SDS011;51109;47.414;18.954;2023-05-27T08:36:18;11.65;;;5.38;;
64684;SDS011;51109;47.414;18.954;2023-05-27T08:38:44;11.38;;;5.68;;
64684;SDS011;51109;47.414;18.954;2023-05-27T08:41:10;10.07;;;5.55;;
64684;SDS011;51109;47.414;18.954;2023-05-27T08:43:37;10.88;;;5.88;;
64684;SDS011;51109;47.414;18.954;2023-05-27T08:46:03;11.63;;;5.13;;
64684;SDS011;51109;47.414;18.954;2023-05-27T08:48:29;11.05;;;5.47;;
64684;SDS011;51109;47.414;18.954;2023-05-27T08:50:55;9.25;;;5.60;;
64684;SDS011;51109;47.414;18.954;2023-05-27T08:53:22;10.23;;;5.68;;
64684;SDS011;51109;47.414;18.954;2023-05-27T08:55:49;16.20;;;5.95;;
64684;SDS011;51109;47.414;18.954;2023-05-27T08:58:16;7.63;;;5.10;;
64684;SDS011;51109;47.414;18.954;2023-05-27T09:00:43;7.57;;;4.85;;
64684;SDS011;51109;47.414;18.954;2023-05-27T09:03:09;10.63;;;5.38;;
64684;SDS011;51109;47.414;18.954;2023-05-27T09:05:35;9.27;;;5.15;;
64684;SDS011;51109;47.414;18.954;2023-05-27T09:08:01;13.40;;;5.28;;
64684;SDS011;51109;47.414;18.954;2023-05-27T09:10:37;10.10;;;4.97;;
64684;SDS011;51109;47.414;18.954;2023-05-27T09:13:03;10.93;;;4.88;;
64684;SDS011;51109;47.414;18.954;2023-05-27T09:15:33;11.15;;;5.07;;
64684;SDS011;51109;47.414;18.954;2023-05-27T09:18:00;11.75;;;5.40;;
64684;SDS011;51109;47.414;18.954;2023-05-27T09:20:27;9.43;;;6.00;;
64684;SDS011;51109;47.414;18.954;2023-05-27T09:22:57;7.88;;;5.32;;
64684;SDS011;51109;47.414;18.954;2023-05-27T09:25:25;8.32;;;5.28;;
64684;SDS011;51109;47.414;18.954;2023-05-27T09:27:52;8.18;;;5.32;;
64684;SDS011;51109;47.414;18.954;2023-05-27T09:30:20;11.75;;;5.45;;
64684;SDS011;51109;47.414;18.954;2023-05-27T09:32:47;7.20;;;5.13;;
64684;SDS011;51109;47.414;18.954;2023-05-27T09:35:14;9.73;;;5.22;;
64684;SDS011;51109;47.414;18.954;2023-05-27T09:37:41;13.93;;;5.43;;
64684;SDS011;51109;47.414;18.954;2023-05-27T09:40:09;10.75;;;5.88;;
64684;SDS011;51109;47.414;18.954;2023-05-27T09:42:47;11.70;;;5.60;;
64684;SDS011;51109;47.414;18.954;2023-05-27T09:45:18;8.13;;;5.25;;
64684;SDS011;51109;47.414;18.954;2023-05-27T09:47:49;14.15;;;5.57;;
64684;SDS011;51109;47.414;18.954;2023-05-27T09:50:16;8.27;;;5.53;;
64684;SDS011;51109;47.414;18.954;2023-05-27T09:52:44;10.50;;;5.65;;
64684;SDS011;51109;47.414;18.954;2023-05-27T09:55:10;8.85;;;5.38;;
64684;SDS011;51109;47.414;18.954;2023-05-27T09:57:40;9.85;;;5.07;;
64684;SDS011;51109;47.414;18.954;2023-05-27T10:00:07;11.32;;;5.53;;
64684;SDS011;51109;47.414;18.954;2023-05-27T10:02:40;7.80;;;5.63;;
64684;SDS011;51109;47.414;18.954;2023-05-27T10:05:11;15.00;;;5.60;;
64684;SDS011;51109;47.414;18.954;2023-05-27T10:07:39;10.50;;;5.47;;
64684;SDS011;51109;47.414;18.954;2023-05-27T10:10:08;8.02;;;5.47;;
64684;SDS011;51109;47.414;18.954;2023-05-27T10:12:35;10.52;;;6.10;;
64684;SDS011;51109;47.414;18.954;2023-05-27T10:15:03;11.80;;;5.38;;
64684;SDS011;51109;47.414;18.954;2023-05-27T10:17:40;10.65;;;5.68;;
64684;SDS011;51109;47.414;18.954;2023-05-27T10:20:34;8.15;;;5.60;;
64684;SDS011;51109;47.414;18.954;2023-05-27T10:23:20;8.43;;;5.55;;
64684;SDS011;51109;47.414;18.954;2023-05-27T10:26:01;8.93;;;5.20;;
64684;SDS011;51109;47.414;18.954;2023-05-27T10:28:38;6.82;;;6.03;;
64684;SDS011;51109;47.414;18.954;2023-05-27T10:33:36;8.07;;;5.65;;
64684;SDS011;51109;47.414;18.954;2023-05-27T10:36:04;12.35;;;5.40;;
64684;SDS011;51109;47.414;18.954;2023-05-27T10:38:34;8.68;;;5.57;;
64684;SDS011;51109;47.414;18.954;2023-05-27T10:41:01;8.70;;;5.47;;
64684;SDS011;51109;47.414;18.954;2023-05-27T10:43:28;8.60;;;5.93;;
64684;SDS011;51109;47.414;18.954;2023-05-27T10:46:02;12.07;;;5.40;;
64684;SDS011;51109;47.414;18.954;2023-05-27T10:48:35;11.40;;;5.85;;
64684;SDS011;51109;47.414;18.954;2023-05-27T10:51:02;9.18;;;6.25;;
64684;SDS011;51109;47.414;18.954;2023-05-27T10:53:29;13.40;;;5.60;;
64684;SDS011;51109;47.414;18.954;2023-05-27T10:55:57;11.85;;;5.28;;
64684;SDS011;51109;47.414;18.954;2023-05-27T10:58:24;12.30;;;6.10;;
64684;SDS011;51109;47.414;18.954;2023-05-27T11:00:50;11.27;;;6.03;;
64684;SDS011;51109;47.414;18.954;2023-05-27T11:03:21;7.45;;;5.43;;
64684;SDS011;51109;47.414;18.954;2023-05-27T11:06:02;11.02;;;6.25;;
64684;SDS011;51109;47.414;18.954;2023-05-27T11:08:30;10.38;;;5.70;;
64684;SDS011;51109;47.414;18.954;2023-05-27T11:11:00;7.68;;;5.07;;
64684;SDS011;51109;47.414;18.954;2023-05-27T11:13:34;11.60;;;6.20;;
64684;SDS011;51109;47.414;18.954;2023-05-27T11:16:05;8.90;;;6.05;;
64684;SDS011;51109;47.414;18.954;2023-05-27T11:18:39;10.68;;;5.72;;
64684;SDS011;51109;47.414;18.954;2023-05-27T11:21:07;11.70;;;6.20;;
64684;SDS011;51109;47.414;18.954;2023-05-27T11:23:43;11.23;;;5.97;;
64684;SDS011;51109;47.414;18.954;2023-05-27T11:26:13;11.48;;;5.82;;
64684;SDS011;51109;47.414;18.954;2023-05-27T11:31:21;9.45;;;6.15;;
64684;SDS011;51109;47.414;18.954;2023-05-27T11:33:56;16.23;;;6.72;;
64684;SDS011;51109;47.414;18.954;2023-05-27T11:36:25;9.88;;;5.85;;
64684;SDS011;51109;47.414;18.954;2023-05-27T11:38:58;9.57;;;5.90;;
64684;SDS011;51109;47.414;18.954;2023-05-27T11:41:29;12.50;;;5.72;;
64684;SDS011;51109;47.414;18.954;2023-05-27T11:44:05;7.85;;;5.43;;
64684;SDS011;51109;47.414;18.954;2023-05-27T11:46:38;9.32;;;6.35;;
64684;SDS011;51109;47.414;18.954;2023-05-27T11:49:09;7.90;;;5.75;;
64684;SDS011;51109;47.414;18.954;2023-05-27T11:51:36;8.40;;;6.28;;
64684;SDS011;51109;47.414;18.954;2023-05-27T11:54:03;13.02;;;7.20;;
64684;SDS011;51109;47.414;18.954;2023-05-27T11:56:29;7.90;;;6.78;;
64684;SDS011;51109;47.414;18.954;2023-05-27T11:58:55;14.07;;;5.40;;
64684;SDS011;51109;47.414;18.954;2023-05-27T12:01:22;9.30;;;6.13;;
64684;SDS011;51109;47.414;18.954;2023-05-27T12:03:48;9.68;;;5.13;;
64684;SDS011;51109;47.414;18.954;2023-05-27T12:06:15;8.85;;;5.47;;
64684;SDS011;51109;47.414;18.954;2023-05-27T12:08:41;7.22;;;5.43;;
64684;SDS011;51109;47.414;18.954;2023-05-27T12:11:10;8.05;;;5.45;;
64684;SDS011;51109;47.414;18.954;2023-05-27T12:13:37;11.43;;;5.75;;
64684;SDS011;51109;47.414;18.954;2023-05-27T12:16:03;11.05;;;6.45;;
64684;SDS011;51109;47.414;18.954;2023-05-27T12:18:30;9.00;;;5.93;;
64684;SDS011;51109;47.414;18.954;2023-05-27T12:20:56;9.75;;;6.10;;
64684;SDS011;51109;47.414;18.954;2023-05-27T12:23:21;8.68;;;5.82;;
64684;SDS011;51109;47.414;18.954;2023-05-27T12:25:47;9.80;;;6.00;;
64684;SDS011;51109;47.414;18.954;2023-05-27T12:28:13;9.82;;;5.68;;
64684;SDS011;51109;47.414;18.954;2023-05-27T12:30:39;9.23;;;6.15;;
64684;SDS011;51109;47.414;18.954;2023-05-27T12:33:05;8.43;;;5.88;;
64684;SDS011;51109;47.414;18.954;2023-05-27T12:35:32;14.63;;;5.72;;
64684;SDS011;51109;47.414;18.954;2023-05-27T12:37:59;8.13;;;5.88;;
64684;SDS011;51109;47.414;18.954;2023-05-27T12:40:25;9.75;;;5.95;;
64684;SDS011;51109;47.414;18.954;2023-05-27T12:42:51;9.05;;;6.07;;
64684;SDS011;51109;47.414;18.954;2023-05-27T12:45:18;9.38;;;6.13;;
64684;SDS011;51109;47.414;18.954;2023-05-27T12:47:47;10.98;;;6.05;;
64684;SDS011;51109;47.414;18.954;2023-05-27T12:50:13;11.55;;;5.90;;
64684;SDS011;51109;47.414;18.954;2023-05-27T12:52:40;9.43;;;5.78;;
64684;SDS011;51109;47.414;18.954;2023-05-27T12:55:11;7.93;;;6.47;;
64684;SDS011;51109;47.414;18.954;2023-05-27T12:57:42;9.90;;;5.53;;
64684;SDS011;51109;47.414;18.954;2023-05-27T13:00:12;8.07;;;5.55;;
64684;SDS011;51109;47.414;18.954;2023-05-27T13:02:38;9.82;;;5.40;;
64684;SDS011;51109;47.414;18.954;2023-05-27T13:05:05;8.15;;;5.85;;
64684;SDS011;51109;47.414;18.954;2023-05-27T13:07:32;10.02;;;6.00;;
64684;SDS011;51109;47.414;18.954;2023-05-27T13:10:03;14.15;;;6.32;;
64684;SDS011;51109;47.414;18.954;2023-05-27T13:12:31;9.70;;;6.22;;
64684;SDS011;51109;47.414;18.954;2023-05-27T13:14:59;11.05;;;5.97;;
64684;SDS011;51109;47.414;18.954;2023-05-27T13:17:26;9.63;;;5.80;;
64684;SDS011;51109;47.414;18.954;2023-05-27T13:19:52;9.68;;;5.60;;
64684;SDS011;51109;47.414;18.954;2023-05-27T13:22:18;9.10;;;5.60;;
64684;SDS011;51109;47.414;18.954;2023-05-27T13:24:44;9.63;;;5.88;;
64684;SDS011;51109;47.414;18.954;2023-05-27T13:27:11;11.43;;;5.47;;
64684;SDS011;51109;47.414;18.954;2023-05-27T13:29:36;9.93;;;5.22;;
64684;SDS011;51109;47.414;18.954;2023-05-27T13:32:02;7.45;;;5.72;;
64684;SDS011;51109;47.414;18.954;2023-05-27T13:34:28;12.60;;;6.53;;
64684;SDS011;51109;47.414;18.954;2023-05-27T13:36:55;8.32;;;6.47;;
64684;SDS011;51109;47.414;18.954;2023-05-27T13:39:21;11.20;;;6.72;;
64684;SDS011;51109;47.414;18.954;2023-05-27T13:41:47;10.20;;;6.57;;
64684;SDS011;51109;47.414;18.954;2023-05-27T13:44:13;11.38;;;6.60;;
64684;SDS011;51109;47.414;18.954;2023-05-27T13:46:39;12.02;;;6.93;;
64684;SDS011;51109;47.414;18.954;2023-05-27T13:49:05;8.80;;;6.45;;
64684;SDS011;51109;47.414;18.954;2023-05-27T13:51:31;11.68;;;6.57;;
64684;SDS011;51109;47.414;18.954;2023-05-27T13:53:57;10.25;;;6.57;;
64684;SDS011;51109;47.414;18.954;2023-05-27T13:56:23;11.40;;;6.93;;
64684;SDS011;51109;47.414;18.954;2023-05-27T13:58:51;11.63;;;7.10;;
64684;SDS011;51109;47.414;18.954;2023-05-27T14:01:18;15.35;;;7.57;;
64684;SDS011;51109;47.414;18.954;2023-05-27T14:03:44;11.63;;;7.53;;
64684;SDS011;51109;47.414;18.954;2023-05-27T14:06:10;9.88;;;6.55;;
64684;SDS011;51109;47.414;18.954;2023-05-27T14:08:36;10.73;;;6.32;;
64684;SDS011;51109;47.414;18.954;2023-05-27T14:11:02;10.57;;;7.07;;
64684;SDS011;51109;47.414;18.954;2023-05-27T14:13:29;8.07;;;6.47;;
64684;SDS011;51109;47.414;18.954;2023-05-27T14:15:54;10.40;;;6.95;;
64684;SDS011;51109;47.414;18.954;2023-05-27T14:18:20;8.93;;;6.28;;
64684;SDS011;51109;47.414;18.954;2023-05-27T14:20:46;8.93;;;5.97;;
64684;SDS011;51109;47.414;18.954;2023-05-27T14:23:13;9.85;;;6.80;;
64684;SDS011;51109;47.414;18.954;2023-05-27T14:25:41;6.88;;;5.97;;
64684;SDS011;51109;47.414;18.954;2023-05-27T14:28:07;6.70;;;6.03;;
64684;SDS011;51109;47.414;18.954;2023-05-27T14:30:34;7.72;;;6.40;;
64684;SDS011;51109;47.414;18.954;2023-05-27T14:33:06;11.57;;;6.57;;